Time;durP1;ratioP1;P1;durP2;ratioP2;P2;SDS_P1;SDS_P2;PMS_P1;PMS_P2;Temp;Humidity;BMP_temperature;BMP_pressure;BME280_temperature;BME280_humidity;BME280_pressure;Samples;Min_cycle;Max_cycle;Signal;HPM_P1;HPM_P2
2022/11/13 00:01:38;;;;;;;16.55;12.05;;;5.00;99.90;;;;;;4666451;28;10000088;-69
2022/11/13 00:04:04;;;;;;;18.02;12.35;;;5.00;99.90;;;;;;5012621;28;20020;-69
2022/11/13 00:06:29;;;;;;;21.15;15.60;;;5.00;99.90;;;;;;5010490;28;20018;-69
2022/11/13 00:08:55;;;;;;;24.67;17.58;;;4.90;99.90;;;;;;5004894;28;20113;-69
2022/11/13 00:11:21;;;;;;;21.48;16.63;;;4.80;99.90;;;;;;5014277;28;20389;-69
2022/11/13 00:13:47;;;;;;;24.50;17.45;;;4.70;99.90;;;;;;5017096;28;20492;-69
2022/11/13 00:16:18;;;;;;;24.77;17.50;;;4.60;99.90;;;;;;5003551;28;20034;-69
2022/11/13 00:18:45;;;;;;;24.17;17.20;;;4.60;99.90;;;;;;5010880;28;20041;-69
2022/11/13 00:21:14;;;;;;;28.42;18.80;;;4.50;99.90;;;;;;5013534;28;20095;-69
2022/11/13 00:23:40;;;;;;;27.00;18.60;;;4.40;99.90;;;;;;5018431;28;20458;-69
2022/11/13 00:26:12;;;;;;;26.00;18.52;;;4.40;99.90;;;;;;5009271;28;20040;-69
2022/11/13 00:28:38;;;;;;;25.08;18.13;;;4.30;99.90;;;;;;5018539;28;20036;-68
2022/11/13 00:31:05;;;;;;;21.90;16.45;;;4.30;99.90;;;;;;5017344;28;20050;-69
2022/11/13 00:33:31;;;;;;;22.45;15.38;;;4.20;99.90;;;;;;5022835;28;20333;-69
2022/11/13 00:36:06;;;;;;;20.67;15.02;;;4.20;99.90;;;;;;5007509;28;20375;-69
2022/11/13 00:38:32;;;;;;;22.45;15.30;;;4.20;99.90;;;;;;5021431;28;20073;-69
2022/11/13 00:40:58;;;;;;;22.27;16.27;;;4.20;99.90;;;;;;5015446;28;20056;-69
2022/11/13 00:43:24;;;;;;;23.83;17.05;;;4.20;99.90;;;;;;5018902;28;20025;-69
2022/11/13 00:45:50;;;;;;;19.45;15.82;;;4.20;99.90;;;;;;5020986;28;20477;-69
2022/11/13 00:48:16;;;;;;;22.88;16.63;;;4.20;99.90;;;;;;5020451;28;20052;-69
2022/11/13 00:50:42;;;;;;;29.10;19.25;;;4.20;99.90;;;;;;5011152;28;20030;-69
2022/11/13 00:53:08;;;;;;;26.65;18.98;;;4.20;99.90;;;;;;5016412;28;20552;-69
2022/11/13 00:55:33;;;;;;;23.90;17.65;;;4.20;99.90;;;;;;5022383;28;20175;-69
2022/11/13 00:57:59;;;;;;;26.17;17.27;;;4.20;99.90;;;;;;5014148;28;20046;-69
2022/11/13 01:00:25;;;;;;;25.50;16.75;;;4.20;99.90;;;;;;5014198;28;20091;-69
2022/11/13 01:02:50;;;;;;;22.67;16.13;;;4.30;99.90;;;;;;5011908;28;20033;-69
2022/11/13 01:05:16;;;;;;;20.63;14.93;;;4.20;99.90;;;;;;5016060;28;20010;-69
2022/11/13 01:07:42;;;;;;;23.65;15.93;;;4.20;99.90;;;;;;5015877;28;20049;-69
2022/11/13 01:10:08;;;;;;;22.73;15.15;;;4.20;99.90;;;;;;5020305;28;20473;-69
2022/11/13 01:12:33;;;;;;;21.60;15.38;;;4.20;99.90;;;;;;5014240;28;20514;-69
2022/11/13 01:14:59;;;;;;;21.67;14.60;;;4.20;99.90;;;;;;5008038;28;20748;-69
2022/11/13 01:17:25;;;;;;;19.27;13.82;;;4.20;99.90;;;;;;5013316;28;20030;-69
2022/11/13 01:19:51;;;;;;;22.58;15.00;;;4.10;99.90;;;;;;5008453;28;20968;-69
2022/11/13 01:22:16;;;;;;;23.33;15.45;;;4.10;99.90;;;;;;5009728;28;20041;-69
2022/11/13 01:24:42;;;;;;;19.25;14.27;;;4.20;99.90;;;;;;5005033;28;20026;-69
2022/11/13 01:27:08;;;;;;;17.70;13.48;;;4.20;99.90;;;;;;5015178;28;20030;-69
2022/11/13 01:29:33;;;;;;;18.63;13.43;;;4.20;99.90;;;;;;5013077;28;20545;-70
2022/11/13 01:32:00;;;;;;;15.10;12.07;;;4.20;99.90;;;;;;5018071;28;20453;-69
2022/11/13 01:34:26;;;;;;;15.18;11.55;;;4.20;99.90;;;;;;5007220;28;20072;-69
2022/11/13 01:36:51;;;;;;;13.95;10.38;;;4.20;99.90;;;;;;5009460;28;20261;-69
2022/11/13 01:39:17;;;;;;;14.05;10.50;;;4.20;99.90;;;;;;5011876;28;20061;-69
2022/11/13 01:41:42;;;;;;;14.07;10.80;;;4.20;99.90;;;;;;5009654;28;20469;-69
2022/11/13 01:44:17;;;;;;;13.30;11.18;;;4.20;99.90;;;;;;5011796;28;20033;-69
2022/11/13 01:46:55;;;;;;;12.35;10.15;;;4.30;99.90;;;;;;5011326;28;20420;-69
2022/11/13 01:49:29;;;;;;;25.60;10.18;;;4.20;99.90;;;;;;5018191;28;20056;-69
2022/11/13 01:52:03;;;;;;;17.17;10.82;;;4.20;99.90;;;;;;5010394;28;20030;-70
2022/11/13 01:54:33;;;;;;;13.00;10.25;;;4.10;99.90;;;;;;5011691;28;20701;-69
2022/11/13 01:57:01;;;;;;;13.88;10.60;;;4.20;99.90;;;;;;5014056;28;20045;-69
2022/11/13 01:59:33;;;;;;;13.35;10.32;;;4.20;99.90;;;;;;5015359;28;20480;-69
2022/11/13 02:01:59;;;;;;;12.50;9.93;;;4.20;99.90;;;;;;5013005;28;20033;-69
2022/11/13 02:04:27;;;;;;;14.80;10.82;;;4.10;99.90;;;;;;5009168;28;20119;-69
2022/11/13 02:07:03;;;;;;;12.55;9.95;;;4.10;99.90;;;;;;5019453;28;20037;-69
2022/11/13 02:09:45;;;;;;;12.57;10.40;;;4.10;99.90;;;;;;5009567;28;20026;-69
2022/11/13 02:12:13;;;;;;;13.02;10.13;;;4.10;99.90;;;;;;5014648;28;20493;-69
2022/11/13 02:14:43;;;;;;;16.80;11.52;;;4.20;99.90;;;;;;5015215;28;20442;-69
2022/11/13 02:17:13;;;;;;;13.93;10.20;;;4.10;99.90;;;;;;5012043;28;20037;-69
2022/11/13 02:19:42;;;;;;;12.07;9.80;;;4.00;99.90;;;;;;5009877;28;20030;-69
2022/11/13 02:22:19;;;;;;;11.45;8.80;;;3.80;99.90;;;;;;5012068;28;20563;-69
2022/11/13 02:24:46;;;;;;;16.85;10.18;;;3.70;99.90;;;;;;5019522;28;20084;-69
2022/11/13 02:27:29;;;;;;;16.13;11.25;;;3.70;99.90;;;;;;5008295;28;20032;-69
2022/11/13 02:29:55;;;;;;;17.02;12.18;;;3.70;99.90;;;;;;5010535;28;20041;-69
2022/11/13 02:32:21;;;;;;;29.45;17.60;;;3.60;99.90;;;;;;5013308;28;20026;-69
2022/11/13 02:34:46;;;;;;;29.38;18.08;;;3.60;99.90;;;;;;5012384;28;20022;-69
2022/11/13 02:37:12;;;;;;;27.95;16.95;;;3.50;99.90;;;;;;5015290;28;20041;-69
2022/11/13 02:39:38;;;;;;;23.88;16.23;;;3.40;99.90;;;;;;5015878;28;20049;-69
2022/11/13 02:42:03;;;;;;;24.35;16.05;;;3.40;99.90;;;;;;5011988;28;20036;-68
2022/11/13 02:44:29;;;;;;;21.75;14.18;;;3.30;99.90;;;;;;5015248;28;20046;-69
2022/11/13 02:46:55;;;;;;;19.58;13.27;;;3.20;99.90;;;;;;5015679;28;20052;-69
2022/11/13 02:49:20;;;;;;;19.05;13.45;;;3.10;99.90;;;;;;5012178;28;20152;-69
2022/11/13 02:51:46;;;;;;;18.50;13.32;;;3.10;99.90;;;;;;5012001;28;20033;-69
2022/11/13 02:54:11;;;;;;;17.58;11.82;;;3.00;99.90;;;;;;5010620;28;20026;-69
2022/11/13 02:56:37;;;;;;;16.40;11.98;;;3.00;99.90;;;;;;5013783;28;20017;-69
2022/11/13 02:59:03;;;;;;;16.73;12.02;;;3.00;99.90;;;;;;5006804;28;20503;-69
2022/11/13 03:01:28;;;;;;;16.73;12.30;;;2.90;99.90;;;;;;5002284;28;20047;-69
2022/11/13 03:03:54;;;;;;;16.92;12.57;;;2.90;99.90;;;;;;5007772;28;20017;-69
2022/11/13 03:06:19;;;;;;;18.00;13.52;;;2.90;99.90;;;;;;5010676;28;20025;-69
2022/11/13 03:08:45;;;;;;;17.67;12.32;;;3.00;99.90;;;;;;5011544;28;20036;-69
2022/11/13 03:11:11;;;;;;;18.63;12.68;;;2.90;99.90;;;;;;5011933;28;20496;-69
2022/11/13 03:13:37;;;;;;;19.20;13.23;;;3.00;99.90;;;;;;5017534;28;20029;-69
2022/11/13 03:16:12;;;;;;;19.58;13.15;;;3.00;99.90;;;;;;5014788;28;20056;-69
2022/11/13 03:18:39;;;;;;;18.73;12.98;;;3.10;99.90;;;;;;5018186;28;20045;-69
2022/11/13 03:21:06;;;;;;;16.90;12.57;;;3.20;99.90;;;;;;5017789;28;20033;-69
2022/11/13 03:23:32;;;;;;;16.67;12.10;;;3.30;99.90;;;;;;5019122;28;20049;-69
2022/11/13 03:26:05;;;;;;;14.18;11.27;;;3.20;99.90;;;;;;5014030;28;20057;-69
2022/11/13 03:28:30;;;;;;;14.45;12.05;;;3.20;99.90;;;;;;5012594;28;20088;-69
2022/11/13 03:30:56;;;;;;;14.73;11.35;;;3.10;99.90;;;;;;5013445;28;20073;-69
2022/11/13 03:33:22;;;;;;;14.60;11.70;;;3.10;99.90;;;;;;5012741;28;20037;-69
2022/11/13 03:35:48;;;;;;;15.88;11.52;;;3.10;99.90;;;;;;5009738;28;20026;-69
2022/11/13 03:38:13;;;;;;;15.23;11.60;;;3.00;99.90;;;;;;5011269;28;20375;-69
2022/11/13 03:40:39;;;;;;;17.23;12.93;;;3.00;99.90;;;;;;5009906;28;20114;-69
2022/11/13 03:43:04;;;;;;;19.65;12.70;;;3.00;99.90;;;;;;5008972;28;20033;-69
2022/11/13 03:45:30;;;;;;;17.20;12.18;;;3.00;99.90;;;;;;5009583;28;20033;-69
2022/11/13 03:47:56;;;;;;;16.17;11.63;;;2.90;99.90;;;;;;5011533;28;20409;-69
2022/11/13 03:50:21;;;;;;;15.07;11.40;;;2.90;99.90;;;;;;5006773;28;20033;-69
2022/11/13 03:52:47;;;;;;;15.40;11.65;;;2.80;99.90;;;;;;5006763;28;20041;-69
2022/11/13 03:55:12;;;;;;;15.35;11.27;;;2.70;99.90;;;;;;5009520;28;20818;-69
2022/11/13 03:57:38;;;;;;;19.52;14.05;;;2.70;99.90;;;;;;5010770;28;20606;-69
2022/11/13 04:00:05;;;;;;;17.88;12.57;;;2.70;99.90;;;;;;5012250;28;20038;-69
2022/11/13 04:02:30;;;;;;;17.73;13.18;;;2.70;99.90;;;;;;5010392;28;20048;-69
2022/11/13 04:04:56;;;;;;;18.55;12.18;;;2.60;99.90;;;;;;5015123;28;20469;-69
2022/11/13 04:07:22;;;;;;;14.98;10.77;;;2.60;99.90;;;;;;5023342;28;20029;-69
2022/11/13 04:09:47;;;;;;;17.92;11.63;;;2.60;99.90;;;;;;5011717;28;20029;-69
2022/11/13 04:12:13;;;;;;;15.75;11.52;;;2.50;99.90;;;;;;5015183;28;20538;-69
2022/11/13 04:14:38;;;;;;;15.73;10.63;;;2.50;99.90;;;;;;5016913;28;20030;-69
2022/11/13 04:17:04;;;;;;;14.25;10.18;;;2.50;99.90;;;;;;5018331;28;20026;-69
2022/11/13 04:19:29;;;;;;;13.98;10.40;;;2.50;99.90;;;;;;5020193;28;20048;-69
2022/11/13 04:21:55;;;;;;;14.10;10.57;;;2.50;99.90;;;;;;5024352;28;20402;-69
2022/11/13 04:24:21;;;;;;;13.15;10.50;;;2.60;99.90;;;;;;5018549;28;20382;-69
2022/11/13 04:26:46;;;;;;;12.82;10.10;;;2.60;99.90;;;;;;5016725;28;20032;-69
2022/11/13 04:29:12;;;;;;;11.77;8.77;;;2.60;99.90;;;;;;5014039;28;20026;-69
2022/11/13 04:31:37;;;;;;;11.30;8.90;;;2.60;99.90;;;;;;5014681;28;20049;-69
2022/11/13 04:34:03;;;;;;;11.35;8.73;;;2.50;99.90;;;;;;5013901;28;20614;-69
2022/11/13 04:36:29;;;;;;;10.95;8.82;;;2.60;99.90;;;;;;5015164;28;20084;-69
2022/11/13 04:38:54;;;;;;;11.40;8.93;;;2.60;99.90;;;;;;5012659;28;20038;-69
2022/11/13 04:44:04;;;;;;;10.45;8.68;;;2.50;99.90;;;;;;5010471;28;20401;-68
2022/11/13 04:46:30;;;;;;;11.70;9.25;;;2.50;99.90;;;;;;5009081;28;20022;-69
2022/11/13 04:48:55;;;;;;;11.70;8.95;;;2.50;99.90;;;;;;5012936;28;20030;-69
2022/11/13 04:51:21;;;;;;;13.32;9.25;;;2.50;99.90;;;;;;5012058;28;20022;-69
2022/11/13 04:53:47;;;;;;;15.00;10.52;;;2.50;99.90;;;;;;5024819;28;20508;-69
2022/11/13 04:56:12;;;;;;;15.07;11.45;;;2.50;99.90;;;;;;5026066;28;20030;-69
2022/11/13 04:58:38;;;;;;;24.02;14.38;;;2.40;99.90;;;;;;5019032;28;20030;-69
2022/11/13 05:01:04;;;;;;;25.13;16.33;;;2.30;99.90;;;;;;5010786;28;20034;-68
2022/11/13 05:03:29;;;;;;;21.90;15.95;;;2.30;99.90;;;;;;5015095;28;20433;-69
2022/11/13 05:06:06;;;;;;;21.05;15.10;;;2.30;99.90;;;;;;5015583;28;20486;-68
2022/11/13 05:08:33;;;;;;;22.02;15.88;;;2.20;99.90;;;;;;5002888;28;20022;-69
2022/11/13 05:10:59;;;;;;;20.08;14.77;;;2.20;99.90;;;;;;5028453;28;20364;-69
2022/11/13 05:13:25;;;;;;;23.00;13.68;;;2.20;99.90;;;;;;5013734;28;20481;-68
2022/11/13 05:15:59;;;;;;;18.38;13.93;;;2.10;99.90;;;;;;5022882;28;20040;-68
2022/11/13 05:18:25;;;;;;;17.40;12.93;;;2.10;99.90;;;;;;5026305;28;20025;-68
2022/11/13 05:20:51;;;;;;;17.65;13.32;;;2.20;99.90;;;;;;5021648;28;20418;-68
2022/11/13 05:23:16;;;;;;;16.30;11.95;;;2.20;99.90;;;;;;5023366;28;20033;-69
2022/11/13 05:25:42;;;;;;;18.02;12.82;;;2.20;99.90;;;;;;5020030;28;20171;-68
2022/11/13 05:28:07;;;;;;;17.70;12.38;;;2.20;99.90;;;;;;5020518;28;20025;-68
2022/11/13 05:30:33;;;;;;;16.48;11.55;;;2.20;99.90;;;;;;5012664;28;20042;-68
2022/11/13 05:32:59;;;;;;;19.92;13.80;;;2.10;99.90;;;;;;5015147;28;20123;-68
2022/11/13 05:35:24;;;;;;;20.02;14.07;;;2.20;99.90;;;;;;5012966;28;20030;-69
2022/11/13 05:37:50;;;;;;;21.75;14.75;;;2.10;99.90;;;;;;5016278;28;20128;-69
2022/11/13 05:40:15;;;;;;;18.98;14.52;;;2.10;99.90;;;;;;5015356;28;20052;-69
2022/11/13 05:42:41;;;;;;;19.75;13.82;;;2.00;99.90;;;;;;5027795;28;20032;-69
2022/11/13 05:45:07;;;;;;;18.10;13.23;;;2.00;99.90;;;;;;5025703;28;20397;-69
2022/11/13 05:47:33;;;;;;;16.58;11.90;;;2.00;99.90;;;;;;5016117;28;20474;-68
2022/11/13 05:49:58;;;;;;;15.95;11.68;;;1.90;99.90;;;;;;5010721;28;20021;-68
2022/11/13 05:52:24;;;;;;;15.98;11.02;;;1.80;99.90;;;;;;5017290;28;20099;-68
2022/11/13 05:54:50;;;;;;;14.23;10.55;;;1.80;99.90;;;;;;5014512;28;20076;-69
2022/11/13 05:57:15;;;;;;;18.50;11.27;;;1.80;99.90;;;;;;5024797;28;20084;-68
2022/11/13 05:59:41;;;;;;;14.25;10.90;;;1.80;99.90;;;;;;5015409;28;20065;-68
2022/11/13 06:02:06;;;;;;;14.30;10.55;;;2.00;99.90;;;;;;5017853;28;21605;-68
2022/11/13 06:04:32;;;;;;;12.65;10.02;;;2.20;99.90;;;;;;5010805;28;20029;-68
2022/11/13 06:06:58;;;;;;;11.55;9.35;;;2.20;99.90;;;;;;5023262;28;20437;-68
2022/11/13 06:09:23;;;;;;;31.90;10.05;;;2.20;99.90;;;;;;5011982;28;20022;-68
2022/11/13 06:11:49;;;;;;;10.68;8.77;;;2.20;99.90;;;;;;5013276;28;20494;-71
2022/11/13 06:14:14;;;;;;;17.40;8.80;;;2.10;99.90;;;;;;5006719;28;20057;-70
2022/11/13 06:16:40;;;;;;;11.02;9.43;;;2.10;99.90;;;;;;5015621;28;20030;-71
2022/11/13 06:19:08;;;;;;;14.70;10.75;;;2.10;99.90;;;;;;5016863;28;20072;-70
2022/11/13 06:21:37;;;;;;;17.55;12.10;;;2.10;99.90;;;;;;5012744;28;20076;-71
2022/11/13 06:24:03;;;;;;;20.02;13.52;;;2.00;99.90;;;;;;5007979;28;20061;-71
2022/11/13 06:26:34;;;;;;;19.17;13.13;;;1.90;99.90;;;;;;5009946;28;20018;-70
2022/11/13 06:29:01;;;;;;;19.15;13.38;;;1.80;99.90;;;;;;5013481;28;20044;-71
2022/11/13 06:31:29;;;;;;;20.23;13.63;;;1.80;99.90;;;;;;5010075;28;20088;-70
2022/11/13 06:33:57;;;;;;;23.05;15.20;;;1.80;99.90;;;;;;5002656;28;20037;-70
2022/11/13 06:36:29;;;;;;;24.67;14.93;;;1.70;99.90;;;;;;5012923;28;20096;-71
2022/11/13 06:38:54;;;;;;;19.70;13.50;;;1.70;99.90;;;;;;5011442;28;20273;-70
2022/11/13 06:41:22;;;;;;;18.58;13.00;;;1.70;99.90;;;;;;5017468;28;20084;-70
2022/11/13 06:43:48;;;;;;;16.23;11.50;;;1.80;99.90;;;;;;5009316;28;20053;-70
2022/11/13 06:46:18;;;;;;;14.50;11.02;;;1.80;99.90;;;;;;5000692;28;20087;-70
2022/11/13 06:48:44;;;;;;;15.80;11.10;;;1.80;99.90;;;;;;5016075;28;20060;-71
2022/11/13 06:51:15;;;;;;;16.67;11.38;;;1.80;99.90;;;;;;5011560;28;20088;-70
2022/11/13 06:53:40;;;;;;;19.25;13.27;;;1.80;99.90;;;;;;5021289;28;20033;-71
2022/11/13 06:56:07;;;;;;;20.95;13.07;;;1.80;99.90;;;;;;5011099;28;20073;-71
2022/11/13 06:58:33;;;;;;;20.75;14.40;;;1.80;99.90;;;;;;5013486;28;20038;-71
2022/11/13 07:01:08;;;;;;;22.13;16.35;;;1.80;99.90;;;;;;5013893;28;20044;-71
2022/11/13 07:03:33;;;;;;;24.65;16.20;;;1.80;99.90;;;;;;5015842;28;20033;-71
2022/11/13 07:06:03;;;;;;;21.08;15.43;;;1.80;99.90;;;;;;5007996;28;20030;-70
2022/11/13 07:08:29;;;;;;;19.02;14.73;;;1.80;99.90;;;;;;5023088;28;20067;-71
2022/11/13 07:10:56;;;;;;;17.55;13.48;;;1.70;99.90;;;;;;5020886;28;20025;-71
2022/11/13 07:13:23;;;;;;;18.90;14.20;;;1.70;99.90;;;;;;5014451;28;20100;-70
2022/11/13 07:15:48;;;;;;;19.77;15.13;;;1.70;99.90;;;;;;5008851;28;20061;-70
2022/11/13 07:18:14;;;;;;;22.30;14.40;;;1.70;99.90;;;;;;5027380;28;20083;-71
2022/11/13 07:20:40;;;;;;;19.70;13.05;;;1.70;99.90;;;;;;5009480;28;20532;-70
2022/11/13 07:23:05;;;;;;;18.48;13.07;;;1.70;99.90;;;;;;5024695;28;20029;-70
2022/11/13 07:25:31;;;;;;;16.20;12.57;;;1.90;99.90;;;;;;5010761;28;20022;-70
2022/11/13 07:27:57;;;;;;;14.88;11.48;;;1.90;99.90;;;;;;5019816;28;20022;-71
2022/11/13 07:30:22;;;;;;;15.65;11.32;;;1.90;99.90;;;;;;5021927;28;20484;-70
2022/11/13 07:32:48;;;;;;;14.35;11.07;;;2.00;99.90;;;;;;5019540;28;20045;-70
2022/11/13 07:35:15;;;;;;;13.85;10.43;;;2.10;99.90;;;;;;5018875;28;20401;-70
2022/11/13 07:37:41;;;;;;;14.40;10.43;;;2.20;99.90;;;;;;5019988;28;20048;-71
2022/11/13 07:40:08;;;;;;;12.68;9.60;;;2.20;99.90;;;;;;5016398;28;20040;-70
2022/11/13 07:42:33;;;;;;;14.15;10.82;;;2.30;99.90;;;;;;5007237;28;20077;-70
2022/11/13 07:44:59;;;;;;;12.88;9.57;;;2.40;99.90;;;;;;5016818;28;20049;-71
2022/11/13 07:47:25;;;;;;;12.73;9.63;;;2.30;99.90;;;;;;5023029;28;20269;-70
2022/11/13 07:49:51;;;;;;;12.55;9.98;;;2.20;99.90;;;;;;5010920;28;20377;-71
2022/11/13 07:52:16;;;;;;;13.07;9.80;;;2.20;99.90;;;;;;5017502;28;20037;-71
2022/11/13 07:54:42;;;;;;;13.05;9.80;;;2.10;99.90;;;;;;5016971;28;20464;-71
2022/11/13 07:57:08;;;;;;;11.20;9.35;;;2.10;99.90;;;;;;5021820;28;20090;-69
2022/11/13 07:59:34;;;;;;;12.82;10.25;;;2.10;99.90;;;;;;5015761;28;20054;-70
2022/11/13 08:01:59;;;;;;;12.73;9.48;;;2.10;99.90;;;;;;5014631;28;20112;-70
2022/11/13 08:04:25;;;;;;;12.55;9.85;;;2.10;99.90;;;;;;5022679;28;20022;-70
2022/11/13 08:06:51;;;;;;;12.93;9.90;;;2.20;99.90;;;;;;5007723;28;21149;-71
2022/11/13 08:09:16;;;;;;;13.48;9.88;;;2.20;99.90;;;;;;5019375;28;20029;-71
2022/11/13 08:11:42;;;;;;;13.90;10.55;;;2.20;99.90;;;;;;5014658;28;20022;-70
2022/11/13 08:14:09;;;;;;;14.93;10.10;;;2.30;99.90;;;;;;5018594;28;20038;-70
2022/11/13 08:16:35;;;;;;;12.82;10.18;;;2.40;99.90;;;;;;5013589;28;20493;-71
2022/11/13 08:19:02;;;;;;;11.75;9.40;;;2.50;99.90;;;;;;5016778;28;20033;-70
2022/11/13 08:21:27;;;;;;;13.13;9.82;;;2.60;99.90;;;;;;5017515;28;20100;-70
2022/11/13 08:23:53;;;;;;;12.10;9.80;;;2.70;99.90;;;;;;5018181;28;20029;-70
2022/11/13 08:26:19;;;;;;;12.00;9.43;;;2.80;99.90;;;;;;5019530;28;20029;-70
2022/11/13 08:28:45;;;;;;;12.20;9.55;;;3.00;99.90;;;;;;5013323;28;20120;-71
2022/11/13 08:31:12;;;;;;;12.75;9.85;;;3.20;99.90;;;;;;5019960;28;20054;-71
2022/11/13 08:33:38;;;;;;;11.48;9.35;;;3.40;99.90;;;;;;5014300;28;20113;-70
2022/11/13 08:36:05;;;;;;;10.55;8.95;;;3.30;99.90;;;;;;5017312;28;20120;-71
2022/11/13 08:38:30;;;;;;;11.27;9.05;;;3.40;99.90;;;;;;5013860;28;20029;-71
2022/11/13 08:40:58;;;;;;;11.18;9.48;;;3.50;99.90;;;;;;5010003;28;20025;-71
2022/11/13 08:43:24;;;;;;;11.07;8.82;;;3.70;99.90;;;;;;5003778;28;20110;-70
2022/11/13 08:45:50;;;;;;;11.60;8.75;;;3.90;99.90;;;;;;5012787;28;20116;-70
2022/11/13 08:48:16;;;;;;;10.98;8.77;;;4.10;99.90;;;;;;5020157;28;20305;-70
2022/11/13 08:50:41;;;;;;;11.40;9.45;;;4.10;99.90;;;;;;5020654;28;20033;-70
2022/11/13 08:53:07;;;;;;;12.05;9.25;;;4.20;99.90;;;;;;5010559;28;20452;-70
2022/11/13 08:55:34;;;;;;;12.88;9.75;;;4.10;99.90;;;;;;5019353;28;20036;-70
2022/11/13 08:58:01;;;;;;;14.30;10.52;;;4.00;99.90;;;;;;5015825;28;20029;-70
2022/11/13 09:00:28;;;;;;;12.82;10.30;;;4.00;99.90;;;;;;5009578;28;20109;-70
2022/11/13 09:02:59;;;;;;;11.80;9.52;;;3.80;99.90;;;;;;5013366;28;20714;-70
2022/11/13 09:05:25;;;;;;;13.40;9.80;;;3.60;99.90;;;;;;5011261;28;20068;-71
2022/11/13 09:07:54;;;;;;;11.55;9.27;;;3.50;99.90;;;;;;5017928;28;20018;-71
2022/11/13 09:10:20;;;;;;;11.88;9.38;;;3.60;99.90;;;;;;5011525;28;20047;-71
2022/11/13 09:12:45;;;;;;;10.48;8.85;;;3.80;99.90;;;;;;5009936;28;20030;-70
2022/11/13 09:15:11;;;;;;;10.90;8.40;;;3.90;99.90;;;;;;5015699;28;20036;-70
2022/11/13 09:17:37;;;;;;;11.43;8.38;;;4.00;99.90;;;;;;5014236;28;20065;-71
2022/11/13 09:20:05;;;;;;;9.93;8.20;;;4.00;99.90;;;;;;5012583;28;20180;-71
2022/11/13 09:22:31;;;;;;;10.57;8.20;;;4.10;99.90;;;;;;5021864;28;20059;-71
2022/11/13 09:24:57;;;;;;;10.30;8.48;;;4.20;99.90;;;;;;5009058;28;20022;-70
2022/11/13 09:27:23;;;;;;;10.48;8.52;;;4.30;99.90;;;;;;5017092;28;20056;-70
2022/11/13 09:29:48;;;;;;;10.48;8.25;;;4.40;99.90;;;;;;5014785;28;20054;-70
2022/11/13 09:32:14;;;;;;;10.18;7.82;;;4.60;99.90;;;;;;5016744;28;20136;-69
2022/11/13 09:34:40;;;;;;;9.73;7.85;;;4.80;99.90;;;;;;5008346;28;20042;-70
2022/11/13 09:37:06;;;;;;;9.82;7.65;;;5.00;99.90;;;;;;5013785;28;20038;-70
2022/11/13 09:39:31;;;;;;;10.40;8.07;;;5.00;99.90;;;;;;5014890;28;20537;-70
2022/11/13 09:42:23;;;;;;;10.60;8.70;;;5.10;99.90;;;;;;5009218;28;20036;-70
2022/11/13 09:44:54;;;;;;;9.95;8.57;;;5.10;99.90;;;;;;5007310;28;20037;-70
2022/11/13 09:47:28;;;;;;;12.20;9.55;;;5.10;99.90;;;;;;5017680;28;20037;-70
2022/11/13 09:50:04;;;;;;;15.48;10.38;;;5.20;99.90;;;;;;5011303;28;20034;-71
2022/11/13 09:52:34;;;;;;;14.85;10.73;;;5.20;99.90;;;;;;5012379;28;20065;-70
2022/11/13 09:55:00;;;;;;;13.80;10.60;;;5.20;99.90;;;;;;5012475;28;20034;-70
2022/11/13 09:57:51;;;;;;;13.63;10.15;;;5.30;99.90;;;;;;5012529;28;20037;-70
2022/11/13 10:00:20;;;;;;;16.85;11.40;;;5.40;99.90;;;;;;5018800;28;20385;-70
2022/11/13 10:03:18;;;;;;;17.67;11.80;;;5.40;99.90;;;;;;5021036;28;20036;-70
2022/11/13 10:06:08;;;;;;;20.38;12.85;;;5.60;99.90;;;;;;5019699;28;20025;-70
2022/11/13 10:08:56;;;;;;;16.42;11.70;;;5.70;99.90;;;;;;5013869;28;20547;-70
2022/11/13 10:11:30;;;;;;;19.58;13.35;;;5.80;99.90;;;;;;5005837;28;20394;-71
2022/11/13 10:14:00;;;;;;;17.48;12.68;;;5.80;99.90;;;;;;5018646;28;20021;-71
2022/11/13 10:16:38;;;;;;;18.50;13.35;;;5.90;99.90;;;;;;5010823;28;20565;-70
2022/11/13 10:19:15;;;;;;;17.13;12.52;;;6.00;99.90;;;;;;5016890;28;20136;-71
2022/11/13 10:21:45;;;;;;;17.88;12.57;;;6.00;99.90;;;;;;5013726;28;20593;-71
2022/11/13 10:24:26;;;;;;;17.60;12.80;;;6.10;99.90;;;;;;5015780;28;20497;-70
2022/11/13 10:26:57;;;;;;;20.75;13.82;;;6.10;99.90;;;;;;5013494;28;20071;-71
2022/11/13 10:29:23;;;;;;;21.80;13.88;;;6.20;99.90;;;;;;5019167;28;20738;-72
2022/11/13 10:31:51;;;;;;;21.25;14.65;;;6.20;99.90;;;;;;5018797;28;20469;-71
2022/11/13 10:34:18;;;;;;;20.05;13.90;;;6.30;99.90;;;;;;5014874;28;20037;-72
2022/11/13 10:37:04;;;;;;;21.02;14.25;;;6.40;99.90;;;;;;5015403;28;20095;-71
2022/11/13 10:39:29;;;;;;;22.15;14.57;;;6.50;99.90;;;;;;5014526;28;20477;-72
2022/11/13 10:41:55;;;;;;;19.90;14.32;;;6.60;99.90;;;;;;5018272;28;20036;-71
2022/11/13 10:44:28;;;;;;;18.27;13.75;;;6.60;99.90;;;;;;5012603;28;20026;-71
2022/11/13 10:47:18;;;;;;;19.05;13.32;;;6.70;99.90;;;;;;5013150;28;20345;-71
2022/11/13 10:49:43;;;;;;;15.35;11.45;;;6.80;99.90;;;;;;5018658;28;20025;-72
2022/11/13 10:52:24;;;;;;;18.45;11.10;;;6.90;99.90;;;;;;5016208;28;20091;-71
2022/11/13 10:55:02;;;;;;;15.45;10.98;;;6.90;99.90;;;;;;5024302;28;20060;-71
2022/11/13 10:57:34;;;;;;;14.93;11.32;;;7.10;99.90;;;;;;5021684;28;20056;-71
2022/11/13 11:00:00;;;;;;;15.40;10.55;;;7.10;99.90;;;;;;5018513;28;20041;-71
2022/11/13 11:02:27;;;;;;;13.38;10.57;;;7.20;99.90;;;;;;5021646;28;20037;-71
2022/11/13 11:05:21;;;;;;;14.68;9.98;;;7.30;99.90;;;;;;5009159;28;20410;-71
2022/11/13 11:07:46;;;;;;;;;;;7.40;99.90;;;;;;5020344;28;20033;-71
2022/11/13 11:10:35;;;;;;;11.50;8.30;;;7.60;99.90;;;;;;5017109;28;20032;-71
2022/11/13 11:13:22;;;;;;;10.18;7.53;;;7.80;99.90;;;;;;5012312;28;20047;-71
2022/11/13 11:15:55;;;;;;;11.15;8.68;;;8.10;99.90;;;;;;5016671;28;20500;-71
2022/11/13 11:18:27;;;;;;;13.32;10.55;;;8.40;99.90;;;;;;5021409;28;20393;-71
2022/11/13 11:20:58;;;;;;;15.23;11.98;;;8.70;99.90;;;;;;5017151;28;20667;-71
2022/11/13 11:23:52;;;;;;;13.35;11.55;;;9.00;99.90;;;;;;5015700;28;20556;-72
2022/11/13 11:26:35;;;;;;;11.88;9.07;;;9.40;99.90;;;;;;5020739;28;20017;-71
2022/11/13 11:29:20;;;;;;;;;;;9.60;99.90;;;;;;5020288;28;20504;-71
2022/11/13 11:31:58;;;;;;;12.20;9.85;;;9.80;99.90;;;;;;5016899;28;20388;-71
2022/11/13 11:34:34;;;;;;;14.13;9.57;;;10.00;99.90;;;;;;5015450;28;20045;-73
2022/11/13 11:37:24;;;;;;;11.48;9.75;;;10.20;99.90;;;;;;5016821;28;20581;-73
2022/11/13 11:39:56;;;;;;;12.57;9.93;;;10.40;99.90;;;;;;5013259;28;20100;-73
2022/11/13 11:42:35;;;;;;;13.20;10.18;;;10.50;99.90;;;;;;5017501;28;20543;-73
2022/11/13 11:45:24;;;;;;;13.70;10.05;;;10.40;99.90;;;;;;5019481;28;20055;-73
2022/11/13 11:47:50;;;;;;;14.27;10.43;;;10.40;99.90;;;;;;5003471;28;20080;-73
2022/11/13 11:50:26;;;;;;;12.73;10.15;;;10.40;99.90;;;;;;5016979;28;20462;-72
2022/11/13 11:53:04;;;;;;;13.80;10.27;;;10.30;99.90;;;;;;5014385;28;20060;-72
2022/11/13 11:55:44;;;;;;;13.98;11.00;;;10.30;99.90;;;;;;5013882;28;20037;-74
2022/11/13 11:58:37;;;;;;;12.95;10.80;;;10.30;99.90;;;;;;4662665;28;10000526;-73
2022/11/13 12:01:12;;;;;;;13.40;11.15;;;10.30;99.90;;;;;;5007682;28;20030;-74
2022/11/13 12:03:58;;;;;;;13.50;10.90;;;10.30;99.90;;;;;;5001787;28;20037;-72
2022/11/13 12:06:47;;;;;;;14.75;11.55;;;10.40;99.90;;;;;;5004653;28;20033;-73
2022/11/13 12:09:23;;;;;;;13.45;10.63;;;10.50;99.90;;;;;;5009111;28;20041;-72
2022/11/13 12:12:06;;;;;;;15.23;11.02;;;10.50;99.90;;;;;;5004273;28;20032;-71
2022/11/13 12:14:44;;;;;;;12.93;10.48;;;10.50;99.90;;;;;;5014291;28;20033;-72
2022/11/13 12:17:30;;;;;;;14.15;10.40;;;10.50;99.90;;;;;;5013341;28;20545;-71
2022/11/13 12:20:15;;;;;;;14.02;11.68;;;10.40;99.90;;;;;;5014221;28;20492;-70
2022/11/13 12:22:56;;;;;;;16.17;12.25;;;10.50;99.90;;;;;;5008942;28;20040;-70
2022/11/13 12:26:09;;;;;;;17.45;12.55;;;10.50;99.90;;;;;;4999911;28;20033;-72
2022/11/13 12:28:34;;;;;;;15.18;12.45;;;10.40;99.90;;;;;;5020470;28;20034;-73
2022/11/13 12:31:27;;;;;;;16.38;12.85;;;10.40;99.90;;;;;;5008091;28;20483;-71
2022/11/13 12:34:06;;;;;;;17.60;13.53;;;10.40;99.90;;;;;;5015293;28;20384;-73
2022/11/13 12:36:32;;;;;;;16.48;12.77;;;10.40;99.90;;;;;;5004233;28;20280;-74
2022/11/13 12:38:57;;;;;;;17.00;13.35;;;10.30;99.90;;;;;;5010124;28;20022;-75
2022/11/13 12:41:36;;;;;;;16.77;13.07;;;10.30;99.90;;;;;;5009362;28;20030;-72
2022/11/13 12:44:21;;;;;;;17.38;13.20;;;10.30;99.90;;;;;;5017138;28;20858;-71
2022/11/13 12:46:48;;;;;;;17.92;13.82;;;10.30;99.90;;;;;;5008980;28;20212;-72
2022/11/13 12:49:33;;;;;;;17.63;13.68;;;10.30;99.90;;;;;;5010618;28;20611;-72
2022/11/13 12:52:15;;;;;;;16.88;13.52;;;10.30;99.90;;;;;;5013094;28;20034;-71